createdAt,value
2023-05-08T00:00:08.232Z,9.97
2023-05-08T00:02:34.982Z,9.94
2023-05-08T00:05:01.830Z,9.91
2023-05-08T00:07:28.480Z,9.89
2023-05-08T00:09:55.077Z,9.88
2023-05-08T00:12:21.652Z,9.83
2023-05-08T00:14:48.184Z,9.71
2023-05-08T00:17:14.834Z,9.71
2023-05-08T00:19:41.423Z,9.71
2023-05-08T00:22:08.063Z,9.71
2023-05-08T00:24:34.613Z,9.69
2023-05-08T00:27:01.224Z,9.63
2023-05-08T00:29:27.928Z,9.53
2023-05-08T00:31:54.474Z,9.43
2023-05-08T00:34:21.234Z,9.26
2023-05-08T00:36:47.912Z,9.22
2023-05-08T00:39:14.581Z,9.22
2023-05-08T00:41:41.120Z,9.22
2023-05-08T00:44:08.412Z,9.19
2023-05-08T00:46:36.713Z,9.13
2023-05-08T00:49:05.319Z,9.09
2023-05-08T00:51:32.190Z,8.95
2023-05-08T00:53:59.908Z,8.86
2023-05-08T00:56:29.287Z,8.86
2023-05-08T00:58:56.514Z,8.84
2023-05-08T01:01:23.781Z,8.77
2023-05-08T01:03:51.001Z,8.70
2023-05-08T01:06:17.661Z,8.67
2023-05-08T01:08:45.265Z,8.64
2023-05-08T01:11:15.439Z,8.62
2023-05-08T01:14:19.433Z,8.58
2023-05-08T01:17:10.612Z,8.56
2023-05-08T01:20:04.076Z,8.58
2023-05-08T01:22:55.622Z,8.56
2023-05-08T01:25:59.593Z,8.57
2023-05-08T01:28:32.051Z,8.51
2023-05-08T01:30:58.582Z,8.48
2023-05-08T01:33:34.841Z,8.50
2023-05-08T01:36:14.092Z,8.54
2023-05-08T01:38:52.512Z,8.55
2023-05-08T01:41:26.250Z,8.57
2023-05-08T01:43:52.732Z,8.57
2023-05-08T01:46:28.363Z,8.56
2023-05-08T01:49:17.790Z,8.56
2023-05-08T01:51:57.896Z,8.50
2023-05-08T01:54:28.478Z,8.51
2023-05-08T01:56:58.174Z,8.51
2023-05-08T01:59:28.237Z,8.46
2023-05-08T02:01:57.430Z,8.41
2023-05-08T02:04:25.778Z,8.31
2023-05-08T02:06:53.584Z,8.26
2023-05-08T02:09:22.753Z,8.23
2023-05-08T02:11:50.562Z,8.19
2023-05-08T02:14:21.147Z,8.19
2023-05-08T02:16:49.656Z,8.17
2023-05-08T02:19:18.807Z,8.15
2023-05-08T02:21:47.210Z,8.17
2023-05-08T02:24:15.804Z,8.16
2023-05-08T02:26:45.082Z,8.15
2023-05-08T02:29:11.824Z,8.14
2023-05-08T02:31:39.954Z,8.13
2023-05-08T02:34:09.521Z,8.09
2023-05-08T02:36:38.247Z,8.08
2023-05-08T02:39:07.590Z,8.03
2023-05-08T02:41:36.252Z,8.01
2023-05-08T02:44:02.929Z,7.95
2023-05-08T02:46:52.818Z,7.95
2023-05-08T02:49:32.224Z,7.87
2023-05-08T02:52:16.528Z,7.86
2023-05-08T02:54:51.583Z,7.88
2023-05-08T02:57:32.008Z,7.86
2023-05-08T03:00:05.181Z,7.85
2023-05-08T03:02:40.492Z,7.84
2023-05-08T03:05:15.440Z,7.84
2023-05-08T03:07:43.747Z,7.78
2023-05-08T03:10:16.755Z,7.77
2023-05-08T03:12:46.637Z,7.77
2023-05-08T03:15:21.399Z,7.78
2023-05-08T03:17:52.288Z,7.72
2023-05-08T03:20:21.445Z,7.71
2023-05-08T03:22:49.441Z,7.68
2023-05-08T03:25:18.087Z,7.67
2023-05-08T03:27:45.753Z,7.65
2023-05-08T03:30:13.430Z,7.59
2023-05-08T03:32:41.432Z,7.56
2023-05-08T03:35:09.715Z,7.55
2023-05-08T03:37:36.750Z,7.54
2023-05-08T03:40:03.859Z,7.58
2023-05-08T03:42:31.584Z,7.62
2023-05-08T03:44:58.910Z,7.70
2023-05-08T03:47:28.624Z,7.75
2023-05-08T03:49:55.647Z,7.79
2023-05-08T03:52:22.486Z,7.82
2023-05-08T03:54:49.097Z,7.86
2023-05-08T03:57:15.767Z,7.85
2023-05-08T03:59:49.987Z,7.80
2023-05-08T04:02:16.526Z,7.82
2023-05-08T04:04:47.259Z,7.88
2023-05-08T04:07:20.317Z,7.96
2023-05-08T04:10:21.622Z,7.97
2023-05-08T04:13:00.996Z,7.97
2023-05-08T04:15:31.543Z,7.91
2023-05-08T04:18:09.844Z,7.91
2023-05-08T04:20:40.823Z,7.95
2023-05-08T04:23:09.280Z,8.01
2023-05-08T04:25:38.969Z,8.09
2023-05-08T04:28:06.221Z,8.16
2023-05-08T04:30:33.511Z,8.19
2023-05-08T04:33:04.022Z,8.25
2023-05-08T04:35:30.908Z,8.35
2023-05-08T04:37:59.095Z,8.41
2023-05-08T04:40:26.130Z,8.46
2023-05-08T04:42:52.865Z,8.50
2023-05-08T04:45:19.554Z,8.59
2023-05-08T04:47:46.270Z,8.61
2023-05-08T04:50:12.961Z,8.65
2023-05-08T04:52:39.560Z,8.74
2023-05-08T04:55:06.934Z,8.83
2023-05-08T04:57:33.854Z,8.93
2023-05-08T05:00:00.424Z,9.03
2023-05-08T05:02:27.083Z,9.13
2023-05-08T05:04:53.672Z,9.22
2023-05-08T05:07:20.221Z,9.36
2023-05-08T05:09:46.792Z,9.47
2023-05-08T05:12:13.362Z,9.54
2023-05-08T05:14:39.925Z,9.62
2023-05-08T05:17:06.526Z,9.69
2023-05-08T05:19:33.103Z,9.73
2023-05-08T05:22:00.050Z,9.83
2023-05-08T05:24:26.603Z,9.89
2023-05-08T05:26:53.862Z,9.96
2023-05-08T05:29:20.452Z,10.02
2023-05-08T05:31:47.023Z,10.07
2023-05-08T05:34:13.611Z,10.11
2023-05-08T05:36:40.190Z,10.15
2023-05-08T05:39:07.004Z,10.22
2023-05-08T05:41:34.239Z,10.31
2023-05-08T05:44:00.800Z,10.39
2023-05-08T05:46:32.473Z,10.41
2023-05-08T05:48:59.472Z,10.44
2023-05-08T05:51:27.653Z,10.44
2023-05-08T05:53:54.262Z,10.45
2023-05-08T05:56:21.853Z,10.50
2023-05-08T05:58:48.447Z,10.54
2023-05-08T06:01:17.650Z,10.56
2023-05-08T06:03:44.500Z,10.58
2023-05-08T06:06:11.344Z,10.62
2023-05-08T06:08:37.879Z,10.69
2023-05-08T06:11:04.502Z,10.73
2023-05-08T06:13:31.714Z,10.77
2023-05-08T06:15:58.465Z,10.84
2023-05-08T06:18:25.189Z,10.94
2023-05-08T06:20:58.598Z,11.02
2023-05-08T06:23:25.736Z,11.07
2023-05-08T06:25:52.678Z,11.10
2023-05-08T06:28:20.091Z,11.10
2023-05-08T06:30:46.717Z,11.13
2023-05-08T06:33:13.355Z,11.19
2023-05-08T06:35:39.933Z,11.25
2023-05-08T06:38:06.589Z,11.31
2023-05-08T06:40:33.169Z,11.41
2023-05-08T06:42:59.790Z,11.49
2023-05-08T06:45:26.393Z,11.63
2023-05-08T06:47:53.086Z,11.72
2023-05-08T06:50:19.788Z,11.81
2023-05-08T06:52:46.412Z,11.97
2023-05-08T06:55:13.102Z,12.08
2023-05-08T06:57:39.768Z,12.11
2023-05-08T07:00:07.035Z,12.22
2023-05-08T07:02:33.650Z,12.32
2023-05-08T07:05:00.580Z,12.49
2023-05-08T07:07:27.193Z,12.55
2023-05-08T07:09:53.788Z,12.68
2023-05-08T07:12:20.455Z,12.79
2023-05-08T07:14:47.084Z,12.88
2023-05-08T07:17:13.692Z,13.06
2023-05-08T07:19:40.547Z,13.23
2023-05-08T07:22:07.307Z,13.27
2023-05-08T07:24:33.991Z,13.33
2023-05-08T07:27:01.294Z,13.38
2023-05-08T07:29:27.978Z,13.52
2023-05-08T07:31:54.647Z,13.65
2023-05-08T07:34:21.261Z,13.82
2023-05-08T07:36:48.118Z,14.02
2023-05-08T07:39:14.713Z,14.20
2023-05-08T07:41:41.486Z,14.33
2023-05-08T07:44:08.428Z,14.34
2023-05-08T07:46:35.162Z,14.40
2023-05-08T07:49:01.845Z,14.31
2023-05-08T07:51:28.926Z,14.28
2023-05-08T07:53:55.701Z,14.39
2023-05-08T07:56:25.023Z,14.30
2023-05-08T07:58:51.696Z,14.28
2023-05-08T08:01:18.484Z,14.35
2023-05-08T08:03:46.192Z,14.45
2023-05-08T08:06:13.441Z,14.50
2023-05-08T08:08:40.780Z,14.64
2023-05-08T08:11:07.691Z,14.67
2023-05-08T08:13:34.535Z,14.76
2023-05-08T08:16:01.484Z,14.79
2023-05-08T08:18:28.632Z,14.94
2023-05-08T08:20:55.458Z,15.06
2023-05-08T08:23:22.277Z,15.16
2023-05-08T08:25:49.000Z,15.24
2023-05-08T08:28:15.677Z,15.29
2023-05-08T08:30:42.280Z,15.44
2023-05-08T08:33:08.954Z,15.47
2023-05-08T08:35:35.711Z,15.53
2023-05-08T08:38:02.453Z,15.68
2023-05-08T08:40:29.179Z,15.79
2023-05-08T08:42:55.905Z,15.92
2023-05-08T08:45:22.568Z,15.88
2023-05-08T08:47:52.548Z,15.82
2023-05-08T08:50:20.489Z,15.78
2023-05-08T08:52:59.745Z,15.87
2023-05-08T08:55:26.614Z,16.08
2023-05-08T08:58:06.453Z,16.33
2023-05-08T09:00:34.331Z,16.48
2023-05-08T09:03:01.462Z,16.66
2023-05-08T09:05:28.265Z,16.59
2023-05-08T09:07:55.695Z,16.63
2023-05-08T09:10:27.186Z,16.62
2023-05-08T09:12:54.017Z,16.66
2023-05-08T09:15:20.944Z,16.74
2023-05-08T09:17:47.749Z,16.88
2023-05-08T09:20:16.220Z,17.06
2023-05-08T09:22:43.629Z,17.21
2023-05-08T09:25:10.673Z,17.33
2023-05-08T09:27:37.574Z,17.41
2023-05-08T09:30:09.496Z,17.50
2023-05-08T09:32:38.520Z,17.09
2023-05-08T09:35:07.336Z,17.13
2023-05-08T09:37:34.181Z,17.44
2023-05-08T09:40:20.970Z,17.68
2023-05-08T09:42:49.141Z,17.87
2023-05-08T09:45:32.906Z,17.96
2023-05-08T09:47:59.579Z,18.13
2023-05-08T09:50:26.872Z,18.27
2023-05-08T09:52:53.562Z,18.37
2023-05-08T09:55:20.436Z,18.35
2023-05-08T09:57:53.010Z,18.31
2023-05-08T10:00:20.425Z,18.49
2023-05-08T10:03:00.818Z,18.59
2023-05-08T10:05:31.314Z,18.63
2023-05-08T10:07:59.372Z,18.77
2023-05-08T10:10:28.069Z,18.91
2023-05-08T10:12:56.047Z,19.11
2023-05-08T10:15:29.900Z,19.20
2023-05-08T10:18:04.045Z,19.36
2023-05-08T10:20:31.253Z,19.24
2023-05-08T10:22:58.780Z,19.29
2023-05-08T10:25:30.412Z,19.44
2023-05-08T10:28:25.327Z,19.65
2023-05-08T10:30:52.151Z,19.71
2023-05-08T10:33:25.974Z,19.79
2023-05-08T10:35:53.127Z,19.76
2023-05-08T10:38:20.510Z,19.79
2023-05-08T10:40:48.408Z,19.90
2023-05-08T10:43:16.227Z,20.03
2023-05-08T10:45:43.497Z,20.09
2023-05-08T10:48:15.916Z,20.20
2023-05-08T10:51:03.118Z,20.20
2023-05-08T10:53:39.515Z,20.08
2023-05-08T10:56:06.353Z,20.10
2023-05-08T10:58:34.613Z,20.11
2023-05-08T11:01:03.692Z,20.22
2023-05-08T11:03:33.273Z,20.38
2023-05-08T11:06:01.676Z,20.53
2023-05-08T11:08:30.977Z,20.64
2023-05-08T11:11:00.587Z,20.77
2023-05-08T11:13:35.246Z,20.77
2023-05-08T11:16:02.833Z,20.88
2023-05-08T11:18:42.283Z,20.85
2023-05-08T11:21:20.833Z,21.05
2023-05-08T11:23:57.021Z,20.93
2023-05-08T11:26:39.348Z,20.99
2023-05-08T11:29:17.182Z,21.23
2023-05-08T11:31:52.600Z,21.56
2023-05-08T11:34:44.276Z,21.63
2023-05-08T11:37:19.926Z,21.74
2023-05-08T11:39:47.651Z,21.93
2023-05-08T11:42:29.009Z,21.93
2023-05-08T11:45:09.032Z,21.97
2023-05-08T11:47:41.939Z,22.14
2023-05-08T11:50:10.636Z,22.28
2023-05-08T11:52:39.200Z,22.16
2023-05-08T11:55:08.073Z,22.19
2023-05-08T11:57:35.120Z,22.38
2023-05-08T12:00:09.947Z,22.49
2023-05-08T12:02:39.056Z,22.55
2023-05-08T12:05:07.675Z,22.71
2023-05-08T12:07:44.216Z,22.90
2023-05-08T12:10:11.123Z,23.02
2023-05-08T12:12:39.122Z,23.20
2023-05-08T12:15:08.219Z,23.43
2023-05-08T12:17:35.764Z,23.56
2023-05-08T12:20:13.714Z,23.68
2023-05-08T12:22:41.754Z,23.78
2023-05-08T12:25:10.527Z,23.85
2023-05-08T12:27:38.278Z,23.84
2023-05-08T12:30:10.874Z,23.75
2023-05-08T12:32:40.141Z,23.78
2023-05-08T12:35:08.404Z,23.86
2023-05-08T12:37:35.416Z,23.71
2023-05-08T12:40:02.803Z,23.59
2023-05-08T12:42:53.976Z,23.68
2023-05-08T12:45:25.729Z,23.72
2023-05-08T12:47:53.566Z,23.82
2023-05-08T12:50:21.840Z,23.92
2023-05-08T12:52:51.167Z,23.87
2023-05-08T12:55:28.572Z,23.65
2023-05-08T12:58:07.325Z,23.71
2023-05-08T13:00:47.780Z,23.84
2023-05-08T13:03:24.292Z,24.04
2023-05-08T13:05:51.402Z,24.20
2023-05-08T13:08:18.235Z,24.42
2023-05-08T13:10:47.997Z,24.65
2023-05-08T13:13:16.070Z,24.75
2023-05-08T13:15:43.471Z,24.71
2023-05-08T13:18:10.550Z,24.65
2023-05-08T13:20:37.696Z,24.73
2023-05-08T13:23:05.290Z,24.79
2023-05-08T13:25:32.740Z,24.78
2023-05-08T13:28:00.131Z,24.73
2023-05-08T13:30:26.979Z,24.95
2023-05-08T13:32:54.238Z,24.98
2023-05-08T13:35:22.369Z,24.87
2023-05-08T13:37:49.498Z,24.91
2023-05-08T13:40:16.698Z,25.12
2023-05-08T13:42:43.423Z,25.31
2023-05-08T13:45:14.719Z,25.06
2023-05-08T13:47:42.724Z,25.33
2023-05-08T13:50:10.566Z,25.55
2023-05-08T13:52:37.930Z,25.76
2023-05-08T13:55:09.515Z,25.90
2023-05-08T13:57:36.323Z,26.34
2023-05-08T14:00:06.536Z,26.80
2023-05-08T14:02:33.350Z,27.28
2023-05-08T14:05:00.005Z,27.54
2023-05-08T14:07:26.825Z,27.58
2023-05-08T14:09:54.279Z,27.61
2023-05-08T14:12:20.948Z,27.60
2023-05-08T14:14:47.597Z,27.99
2023-05-08T14:17:14.211Z,28.31
2023-05-08T14:19:40.889Z,29.02
2023-05-08T14:22:07.598Z,29.65
2023-05-08T14:24:34.217Z,29.95
2023-05-08T14:27:05.834Z,30.51
2023-05-08T14:29:33.596Z,30.58
2023-05-08T14:32:00.411Z,30.71
2023-05-08T14:34:27.142Z,30.49
2023-05-08T14:36:53.858Z,30.72
2023-05-08T14:39:20.679Z,30.65
2023-05-08T14:42:05.208Z,29.79
2023-05-08T14:44:34.257Z,30.11
2023-05-08T14:47:00.913Z,29.95
2023-05-08T14:49:36.779Z,29.79
2023-05-08T14:52:05.739Z,29.79
2023-05-08T14:54:32.931Z,30.18
2023-05-08T14:56:59.845Z,30.54
2023-05-08T14:59:26.444Z,31.40
2023-05-08T15:01:53.277Z,31.95
2023-05-08T15:04:19.988Z,32.13
2023-05-08T15:06:46.899Z,32.41
2023-05-08T15:09:13.588Z,32.46
2023-05-08T15:11:40.218Z,32.39
2023-05-08T15:14:07.026Z,31.89
2023-05-08T15:16:33.656Z,31.77
2023-05-08T15:19:00.445Z,31.39
2023-05-08T15:21:27.512Z,32.04
2023-05-08T15:23:55.306Z,32.64
2023-05-08T15:26:22.978Z,32.59
2023-05-08T15:28:49.895Z,33.07
2023-05-08T15:31:17.309Z,33.08
2023-05-08T15:33:45.193Z,33.07
2023-05-08T15:36:17.940Z,32.73
2023-05-08T15:38:44.544Z,32.24
2023-05-08T15:41:15.089Z,32.27
2023-05-08T15:43:42.549Z,32.33
2023-05-08T15:46:09.655Z,31.45
2023-05-08T15:48:36.324Z,30.52
2023-05-08T15:51:02.991Z,30.71
2023-05-08T15:53:29.689Z,30.57
2023-05-08T15:55:57.135Z,30.38
2023-05-08T15:58:24.394Z,30.71
2023-05-08T16:00:51.100Z,30.56
2023-05-08T16:03:18.040Z,30.97
2023-05-08T16:05:44.865Z,31.33
2023-05-08T16:08:12.972Z,31.07
2023-05-08T16:10:40.890Z,30.91
2023-05-08T16:13:08.164Z,30.71
2023-05-08T16:15:35.113Z,30.38
2023-05-08T16:18:02.012Z,30.33
2023-05-08T16:20:28.904Z,30.49
2023-05-08T16:22:55.968Z,29.85
2023-05-08T16:25:22.884Z,29.84
2023-05-08T16:27:50.338Z,29.63
2023-05-08T16:30:17.884Z,29.34
2023-05-08T16:32:47.405Z,29.61
2023-05-08T16:35:15.062Z,29.21
2023-05-08T16:37:42.137Z,28.66
2023-05-08T16:40:10.039Z,27.92
2023-05-08T16:42:37.083Z,27.61
2023-05-08T16:45:04.948Z,27.42
2023-05-08T16:47:32.105Z,26.76
2023-05-08T16:49:59.311Z,25.61
2023-05-08T16:52:26.059Z,24.81
2023-05-08T16:54:52.928Z,23.93
2023-05-08T16:57:21.854Z,23.80
2023-05-08T16:59:48.453Z,23.66
2023-05-08T17:02:18.916Z,23.24
2023-05-08T17:04:49.312Z,22.58
2023-05-08T17:07:16.482Z,22.38
2023-05-08T17:09:43.190Z,22.24
2023-05-08T17:12:10.272Z,22.15
2023-05-08T17:14:39.405Z,21.41
2023-05-08T17:17:06.611Z,20.68
2023-05-08T17:19:34.280Z,20.26
2023-05-08T17:22:00.946Z,19.95
2023-05-08T17:24:29.629Z,19.60
2023-05-08T17:26:56.349Z,19.16
2023-05-08T17:29:24.505Z,18.73
2023-05-08T17:31:51.152Z,18.45
2023-05-08T17:34:17.807Z,18.21
2023-05-08T17:36:44.451Z,18.05
2023-05-08T17:39:11.621Z,17.85
2023-05-08T17:41:38.208Z,17.67
2023-05-08T17:44:05.089Z,17.50
2023-05-08T17:46:31.818Z,17.34
2023-05-08T17:48:58.472Z,17.16
2023-05-08T17:51:25.039Z,17.00
2023-05-08T17:53:53.070Z,16.78
2023-05-08T17:56:21.330Z,16.58
2023-05-08T17:58:47.909Z,16.32
2023-05-08T18:01:14.824Z,16.17
2023-05-08T18:03:41.890Z,15.97
2023-05-08T18:06:08.575Z,15.93
2023-05-08T18:08:35.251Z,15.69
2023-05-08T18:11:02.004Z,15.56
2023-05-08T18:13:28.638Z,15.35
2023-05-08T18:15:55.268Z,15.29
2023-05-08T18:18:21.880Z,15.22
2023-05-08T18:20:48.630Z,15.06
2023-05-08T18:23:15.300Z,14.91
2023-05-08T18:25:41.966Z,14.79
2023-05-08T18:28:08.595Z,14.69
2023-05-08T18:30:36.513Z,14.57
2023-05-08T18:33:03.395Z,14.48
2023-05-08T18:35:30.044Z,14.36
2023-05-08T18:37:56.656Z,14.28
2023-05-08T18:40:23.240Z,14.13
2023-05-08T18:42:49.890Z,14.02
2023-05-08T18:45:16.691Z,13.92
2023-05-08T18:47:43.564Z,13.89
2023-05-08T18:50:10.663Z,13.81
2023-05-08T18:52:37.392Z,13.78
2023-05-08T18:55:04.218Z,13.75
2023-05-08T18:57:31.058Z,13.60
2023-05-08T18:59:57.696Z,13.50
2023-05-08T19:02:24.876Z,13.40
2023-05-08T19:04:51.577Z,13.29
2023-05-08T19:07:18.393Z,13.25
2023-05-08T19:09:44.972Z,13.22
2023-05-08T19:12:11.906Z,13.11
2023-05-08T19:14:38.583Z,13.06
2023-05-08T19:17:05.176Z,12.97
2023-05-08T19:19:31.741Z,12.87
2023-05-08T19:21:58.474Z,12.79
2023-05-08T19:24:29.717Z,12.71
2023-05-08T19:26:59.860Z,12.71
2023-05-08T19:29:26.536Z,12.57
2023-05-08T19:31:53.114Z,12.52
2023-05-08T19:34:19.798Z,12.50
2023-05-08T19:36:46.377Z,12.41
2023-05-08T19:39:13.682Z,12.36
2023-05-08T19:41:40.485Z,12.22
2023-05-08T19:44:07.117Z,12.13
2023-05-08T19:46:33.752Z,12.10
2023-05-08T19:49:00.371Z,12.06
2023-05-08T19:51:27.010Z,12.01
2023-05-08T19:53:53.640Z,12.00
2023-05-08T19:56:21.115Z,11.93
2023-05-08T19:58:47.698Z,11.85
2023-05-08T20:01:14.263Z,11.86
2023-05-08T20:03:41.028Z,11.88
2023-05-08T20:06:07.676Z,11.82
2023-05-08T20:08:34.303Z,11.75
2023-05-08T20:11:03.958Z,11.72
2023-05-08T20:13:30.608Z,11.67
2023-05-08T20:15:58.652Z,11.59
2023-05-08T20:18:25.645Z,11.61
2023-05-08T20:20:52.206Z,11.57
2023-05-08T20:23:18.812Z,11.58
2023-05-08T20:25:46.503Z,11.49
2023-05-08T20:28:18.727Z,11.45
2023-05-08T20:30:45.349Z,11.39
2023-05-08T20:33:12.065Z,11.33
2023-05-08T20:35:38.827Z,11.27
2023-05-08T20:38:05.460Z,11.25
2023-05-08T20:40:32.135Z,11.26
2023-05-08T20:42:58.824Z,11.26
2023-05-08T20:45:25.514Z,11.16
2023-05-08T20:47:52.325Z,11.18
2023-05-08T20:50:19.327Z,11.13
2023-05-08T20:52:45.916Z,11.10
2023-05-08T20:55:12.723Z,11.10
2023-05-08T20:57:39.496Z,11.05
2023-05-08T21:00:07.245Z,10.93
2023-05-08T21:02:34.033Z,10.88
2023-05-08T21:05:00.910Z,10.87
2023-05-08T21:07:27.611Z,10.79
2023-05-08T21:09:54.144Z,10.72
2023-05-08T21:12:20.938Z,10.67
2023-05-08T21:14:47.525Z,10.60
2023-05-08T21:17:14.142Z,10.57
2023-05-08T21:19:40.718Z,10.57
2023-05-08T21:22:09.307Z,10.54
2023-05-08T21:24:36.587Z,10.47
2023-05-08T21:27:03.254Z,10.45
2023-05-08T21:29:30.094Z,10.38
2023-05-08T21:31:56.726Z,10.37
2023-05-08T21:34:23.301Z,10.38
2023-05-08T21:36:49.855Z,10.36
2023-05-08T21:39:16.431Z,10.31
2023-05-08T21:41:43.765Z,10.27
2023-05-08T21:44:13.221Z,10.26
2023-05-08T21:46:39.888Z,10.24
2023-05-08T21:49:06.597Z,10.26
2023-05-08T21:51:33.267Z,10.26
2023-05-08T21:54:00.302Z,10.23
2023-05-08T21:56:27.125Z,10.20
2023-05-08T21:58:53.807Z,10.20
2023-05-08T22:01:20.435Z,10.19
2023-05-08T22:03:47.152Z,10.12
2023-05-08T22:06:13.843Z,10.04
2023-05-08T22:08:40.706Z,10.01
2023-05-08T22:11:07.315Z,9.99
2023-05-08T22:13:33.925Z,9.97
2023-05-08T22:16:00.577Z,9.97
2023-05-08T22:18:27.165Z,9.96
2023-05-08T22:20:54.999Z,9.94
2023-05-08T22:23:21.658Z,9.92
2023-05-08T22:25:48.214Z,9.88
2023-05-08T22:28:14.873Z,9.90
2023-05-08T22:30:41.545Z,9.86
2023-05-08T22:33:08.190Z,9.81
2023-05-08T22:35:34.834Z,9.80
2023-05-08T22:38:01.772Z,9.78
2023-05-08T22:40:28.763Z,9.78
2023-05-08T22:42:56.239Z,9.74
2023-05-08T22:45:23.377Z,9.74
2023-05-08T22:47:50.199Z,9.73
2023-05-08T22:50:17.399Z,9.67
2023-05-08T22:52:44.152Z,9.62
2023-05-08T22:55:10.983Z,9.58
2023-05-08T22:57:37.552Z,9.54
2023-05-08T23:00:06.170Z,9.53
2023-05-08T23:02:33.903Z,9.47
2023-05-08T23:05:01.934Z,9.45
2023-05-08T23:07:29.126Z,9.45
2023-05-08T23:09:55.716Z,9.42
2023-05-08T23:12:22.301Z,9.39
2023-05-08T23:14:48.917Z,9.37
2023-05-08T23:17:15.505Z,9.29
2023-05-08T23:19:42.610Z,9.18
2023-05-08T23:22:10.032Z,9.15
2023-05-08T23:24:39.379Z,9.11
2023-05-08T23:27:06.121Z,9.11
2023-05-08T23:29:32.760Z,9.17
2023-05-08T23:32:00.060Z,9.13
2023-05-08T23:34:26.636Z,9.13
2023-05-08T23:36:53.418Z,9.11
2023-05-08T23:39:20.010Z,9.07
2023-05-08T23:41:46.630Z,8.99
2023-05-08T23:44:13.193Z,8.98
2023-05-08T23:46:39.813Z,8.97
2023-05-08T23:49:06.783Z,8.96
2023-05-08T23:51:33.676Z,8.96
2023-05-08T23:54:00.372Z,8.92
2023-05-08T23:56:27.024Z,8.89
2023-05-08T23:58:53.655Z,8.88
